sensor_id;sensor_type;location;lat;lon;timestamp;P1;durP1;ratioP1;P2;durP2;ratioP2
27746;SDS011;15138;51.012;4.692;2024-03-08T00:00:31;31.38;;;15.18;;
27746;SDS011;15138;51.012;4.692;2024-03-08T00:03:00;31.90;;;14.52;;
27746;SDS011;15138;51.012;4.692;2024-03-08T00:05:29;32.35;;;15.43;;
27746;SDS011;15138;51.012;4.692;2024-03-08T00:07:58;28.90;;;13.20;;
27746;SDS011;15138;51.012;4.692;2024-03-08T00:10:26;30.27;;;14.52;;
27746;SDS011;15138;51.012;4.692;2024-03-08T00:12:56;42.10;;;15.82;;
27746;SDS011;15138;51.012;4.692;2024-03-08T00:15:25;37.03;;;16.83;;
27746;SDS011;15138;51.012;4.692;2024-03-08T00:17:56;34.42;;;16.42;;
27746;SDS011;15138;51.012;4.692;2024-03-08T00:20:27;31.58;;;14.23;;
27746;SDS011;15138;51.012;4.692;2024-03-08T00:22:55;29.38;;;14.40;;
27746;SDS011;15138;51.012;4.692;2024-03-08T00:25:24;28.92;;;14.25;;
27746;SDS011;15138;51.012;4.692;2024-03-08T00:27:53;29.75;;;12.63;;
27746;SDS011;15138;51.012;4.692;2024-03-08T00:30:23;26.70;;;12.50;;
27746;SDS011;15138;51.012;4.692;2024-03-08T00:32:52;35.65;;;15.77;;
27746;SDS011;15138;51.012;4.692;2024-03-08T00:35:19;36.30;;;16.10;;
27746;SDS011;15138;51.012;4.692;2024-03-08T00:37:47;38.55;;;16.23;;
27746;SDS011;15138;51.012;4.692;2024-03-08T00:40:16;30.13;;;14.55;;
27746;SDS011;15138;51.012;4.692;2024-03-08T00:42:45;32.80;;;14.23;;
27746;SDS011;15138;51.012;4.692;2024-03-08T00:45:13;37.25;;;16.63;;
27746;SDS011;15138;51.012;4.692;2024-03-08T00:47:43;30.17;;;14.57;;
27746;SDS011;15138;51.012;4.692;2024-03-08T00:50:12;29.25;;;13.35;;
27746;SDS011;15138;51.012;4.692;2024-03-08T00:52:40;33.95;;;15.75;;
27746;SDS011;15138;51.012;4.692;2024-03-08T00:55:08;31.85;;;16.05;;
27746;SDS011;15138;51.012;4.692;2024-03-08T00:57:37;35.60;;;15.77;;
27746;SDS011;15138;51.012;4.692;2024-03-08T01:00:06;33.92;;;15.48;;
27746;SDS011;15138;51.012;4.692;2024-03-08T01:02:38;38.70;;;18.25;;
27746;SDS011;15138;51.012;4.692;2024-03-08T01:05:08;34.92;;;15.70;;
27746;SDS011;15138;51.012;4.692;2024-03-08T01:07:36;36.22;;;16.42;;
27746;SDS011;15138;51.012;4.692;2024-03-08T01:10:05;36.67;;;16.13;;
27746;SDS011;15138;51.012;4.692;2024-03-08T01:12:36;32.50;;;14.50;;
27746;SDS011;15138;51.012;4.692;2024-03-08T01:15:05;29.27;;;15.23;;
27746;SDS011;15138;51.012;4.692;2024-03-08T01:17:34;31.73;;;15.40;;
27746;SDS011;15138;51.012;4.692;2024-03-08T01:20:03;37.10;;;16.55;;
27746;SDS011;15138;51.012;4.692;2024-03-08T01:22:33;30.55;;;16.08;;
27746;SDS011;15138;51.012;4.692;2024-03-08T01:25:01;33.47;;;15.73;;
27746;SDS011;15138;51.012;4.692;2024-03-08T01:27:31;26.80;;;14.57;;
27746;SDS011;15138;51.012;4.692;2024-03-08T01:30:03;32.22;;;15.10;;
27746;SDS011;15138;51.012;4.692;2024-03-08T01:32:32;33.92;;;15.90;;
27746;SDS011;15138;51.012;4.692;2024-03-08T01:35:01;32.70;;;16.30;;
27746;SDS011;15138;51.012;4.692;2024-03-08T01:37:30;28.70;;;14.18;;
27746;SDS011;15138;51.012;4.692;2024-03-08T01:39:59;35.30;;;18.45;;
27746;SDS011;15138;51.012;4.692;2024-03-08T01:42:29;27.80;;;13.90;;
27746;SDS011;15138;51.012;4.692;2024-03-08T01:44:57;29.40;;;16.02;;
27746;SDS011;15138;51.012;4.692;2024-03-08T01:47:25;29.00;;;15.73;;
27746;SDS011;15138;51.012;4.692;2024-03-08T01:49:54;32.13;;;15.68;;
27746;SDS011;15138;51.012;4.692;2024-03-08T01:52:23;32.13;;;16.63;;
27746;SDS011;15138;51.012;4.692;2024-03-08T01:54:51;32.72;;;16.27;;
27746;SDS011;15138;51.012;4.692;2024-03-08T01:57:21;24.58;;;12.68;;
27746;SDS011;15138;51.012;4.692;2024-03-08T01:59:49;32.63;;;17.23;;
27746;SDS011;15138;51.012;4.692;2024-03-08T02:02:21;31.92;;;16.20;;
27746;SDS011;15138;51.012;4.692;2024-03-08T02:04:49;28.20;;;14.13;;
27746;SDS011;15138;51.012;4.692;2024-03-08T02:07:19;30.70;;;16.35;;
27746;SDS011;15138;51.012;4.692;2024-03-08T02:09:48;31.27;;;15.50;;
27746;SDS011;15138;51.012;4.692;2024-03-08T02:12:17;31.67;;;16.85;;
27746;SDS011;15138;51.012;4.692;2024-03-08T02:14:48;31.10;;;15.98;;
27746;SDS011;15138;51.012;4.692;2024-03-08T02:17:17;26.48;;;14.68;;
27746;SDS011;15138;51.012;4.692;2024-03-08T02:19:45;32.47;;;16.20;;
27746;SDS011;15138;51.012;4.692;2024-03-08T02:22:15;34.90;;;16.85;;
27746;SDS011;15138;51.012;4.692;2024-03-08T02:24:44;34.78;;;17.83;;
27746;SDS011;15138;51.012;4.692;2024-03-08T02:27:12;29.17;;;16.95;;
27746;SDS011;15138;51.012;4.692;2024-03-08T02:29:41;32.08;;;16.85;;
27746;SDS011;15138;51.012;4.692;2024-03-08T02:32:11;31.75;;;17.13;;
27746;SDS011;15138;51.012;4.692;2024-03-08T02:34:39;31.92;;;17.25;;
27746;SDS011;15138;51.012;4.692;2024-03-08T02:37:07;25.17;;;14.38;;
27746;SDS011;15138;51.012;4.692;2024-03-08T02:39:37;27.88;;;15.73;;
27746;SDS011;15138;51.012;4.692;2024-03-08T02:42:05;33.92;;;18.25;;
27746;SDS011;15138;51.012;4.692;2024-03-08T02:44:34;33.17;;;16.38;;
27746;SDS011;15138;51.012;4.692;2024-03-08T02:47:03;36.17;;;17.67;;
27746;SDS011;15138;51.012;4.692;2024-03-08T02:49:32;28.90;;;15.50;;
27746;SDS011;15138;51.012;4.692;2024-03-08T02:52:00;29.02;;;16.05;;
27746;SDS011;15138;51.012;4.692;2024-03-08T02:54:28;31.73;;;17.20;;
27746;SDS011;15138;51.012;4.692;2024-03-08T02:56:58;31.08;;;15.75;;
27746;SDS011;15138;51.012;4.692;2024-03-08T02:59:26;27.30;;;15.43;;
27746;SDS011;15138;51.012;4.692;2024-03-08T03:01:55;29.35;;;14.30;;
27746;SDS011;15138;51.012;4.692;2024-03-08T03:04:23;32.03;;;18.25;;
27746;SDS011;15138;51.012;4.692;2024-03-08T03:06:51;31.08;;;17.00;;
27746;SDS011;15138;51.012;4.692;2024-03-08T03:09:21;34.88;;;18.70;;
27746;SDS011;15138;51.012;4.692;2024-03-08T03:11:54;33.38;;;18.80;;
27746;SDS011;15138;51.012;4.692;2024-03-08T03:14:23;31.98;;;18.38;;
27746;SDS011;15138;51.012;4.692;2024-03-08T03:16:53;29.85;;;15.95;;
27746;SDS011;15138;51.012;4.692;2024-03-08T03:19:21;34.20;;;18.15;;
27746;SDS011;15138;51.012;4.692;2024-03-08T03:21:50;28.50;;;15.65;;
27746;SDS011;15138;51.012;4.692;2024-03-08T03:24:19;32.72;;;17.30;;
27746;SDS011;15138;51.012;4.692;2024-03-08T03:26:47;33.38;;;17.52;;
27746;SDS011;15138;51.012;4.692;2024-03-08T03:29:16;29.88;;;16.23;;
27746;SDS011;15138;51.012;4.692;2024-03-08T03:31:46;31.80;;;15.95;;
27746;SDS011;15138;51.012;4.692;2024-03-08T03:34:14;32.80;;;17.60;;
27746;SDS011;15138;51.012;4.692;2024-03-08T03:36:44;32.88;;;15.40;;
27746;SDS011;15138;51.012;4.692;2024-03-08T03:39:13;31.33;;;17.83;;
27746;SDS011;15138;51.012;4.692;2024-03-08T03:41:43;30.52;;;17.63;;
27746;SDS011;15138;51.012;4.692;2024-03-08T03:44:13;33.67;;;16.90;;
27746;SDS011;15138;51.012;4.692;2024-03-08T03:46:41;29.02;;;14.13;;
27746;SDS011;15138;51.012;4.692;2024-03-08T03:49:13;34.20;;;19.25;;
27746;SDS011;15138;51.012;4.692;2024-03-08T03:51:41;32.47;;;16.27;;
27746;SDS011;15138;51.012;4.692;2024-03-08T03:54:11;30.73;;;16.55;;
27746;SDS011;15138;51.012;4.692;2024-03-08T03:56:40;33.72;;;18.40;;
27746;SDS011;15138;51.012;4.692;2024-03-08T03:59:08;25.65;;;14.20;;
27746;SDS011;15138;51.012;4.692;2024-03-08T04:01:36;36.63;;;18.17;;
27746;SDS011;15138;51.012;4.692;2024-03-08T04:04:10;29.10;;;14.15;;
27746;SDS011;15138;51.012;4.692;2024-03-08T04:06:40;30.15;;;17.48;;
27746;SDS011;15138;51.012;4.692;2024-03-08T04:09:08;32.65;;;16.20;;
27746;SDS011;15138;51.012;4.692;2024-03-08T04:11:37;35.35;;;18.13;;
27746;SDS011;15138;51.012;4.692;2024-03-08T04:14:06;33.08;;;18.45;;
27746;SDS011;15138;51.012;4.692;2024-03-08T04:16:34;32.78;;;16.50;;
27746;SDS011;15138;51.012;4.692;2024-03-08T04:19:02;34.97;;;18.55;;
27746;SDS011;15138;51.012;4.692;2024-03-08T04:21:31;36.40;;;18.95;;
27746;SDS011;15138;51.012;4.692;2024-03-08T04:24:00;34.30;;;17.67;;
27746;SDS011;15138;51.012;4.692;2024-03-08T04:26:29;33.35;;;17.30;;
27746;SDS011;15138;51.012;4.692;2024-03-08T04:28:57;35.35;;;17.58;;
27746;SDS011;15138;51.012;4.692;2024-03-08T04:31:25;37.03;;;18.85;;
27746;SDS011;15138;51.012;4.692;2024-03-08T04:33:54;31.40;;;16.33;;
27746;SDS011;15138;51.012;4.692;2024-03-08T04:36:22;34.38;;;18.38;;
27746;SDS011;15138;51.012;4.692;2024-03-08T04:38:51;34.10;;;16.88;;
27746;SDS011;15138;51.012;4.692;2024-03-08T04:41:21;32.15;;;17.20;;
27746;SDS011;15138;51.012;4.692;2024-03-08T04:43:49;35.25;;;18.85;;
27746;SDS011;15138;51.012;4.692;2024-03-08T04:46:18;36.33;;;19.08;;
27746;SDS011;15138;51.012;4.692;2024-03-08T04:48:46;31.48;;;17.67;;
27746;SDS011;15138;51.012;4.692;2024-03-08T04:51:15;31.92;;;16.83;;
27746;SDS011;15138;51.012;4.692;2024-03-08T04:53:43;39.45;;;18.70;;
27746;SDS011;15138;51.012;4.692;2024-03-08T04:56:11;34.25;;;18.88;;
27746;SDS011;15138;51.012;4.692;2024-03-08T04:58:41;30.23;;;16.27;;
27746;SDS011;15138;51.012;4.692;2024-03-08T05:01:09;34.47;;;17.67;;
27746;SDS011;15138;51.012;4.692;2024-03-08T05:03:38;31.65;;;17.42;;
27746;SDS011;15138;51.012;4.692;2024-03-08T05:06:06;32.67;;;17.73;;
27746;SDS011;15138;51.012;4.692;2024-03-08T05:08:35;42.22;;;20.55;;
27746;SDS011;15138;51.012;4.692;2024-03-08T05:11:03;30.45;;;16.67;;
27746;SDS011;15138;51.012;4.692;2024-03-08T05:13:33;35.17;;;19.45;;
27746;SDS011;15138;51.012;4.692;2024-03-08T05:16:03;30.77;;;17.20;;
27746;SDS011;15138;51.012;4.692;2024-03-08T05:18:34;29.38;;;15.75;;
27746;SDS011;15138;51.012;4.692;2024-03-08T05:21:02;32.95;;;16.20;;
27746;SDS011;15138;51.012;4.692;2024-03-08T05:23:31;32.08;;;17.02;;
27746;SDS011;15138;51.012;4.692;2024-03-08T05:26:00;34.90;;;18.13;;
27746;SDS011;15138;51.012;4.692;2024-03-08T05:28:31;31.25;;;18.02;;
27746;SDS011;15138;51.012;4.692;2024-03-08T05:30:59;35.67;;;19.70;;
27746;SDS011;15138;51.012;4.692;2024-03-08T05:33:29;34.15;;;17.67;;
27746;SDS011;15138;51.012;4.692;2024-03-08T05:35:58;34.13;;;17.98;;
27746;SDS011;15138;51.012;4.692;2024-03-08T05:38:27;33.72;;;18.38;;
27746;SDS011;15138;51.012;4.692;2024-03-08T05:40:55;33.40;;;16.08;;
27746;SDS011;15138;51.012;4.692;2024-03-08T05:43:23;37.83;;;17.98;;
27746;SDS011;15138;51.012;4.692;2024-03-08T05:45:52;31.85;;;17.40;;
27746;SDS011;15138;51.012;4.692;2024-03-08T05:48:20;31.52;;;16.90;;
27746;SDS011;15138;51.012;4.692;2024-03-08T05:50:50;34.35;;;17.20;;
27746;SDS011;15138;51.012;4.692;2024-03-08T05:53:18;33.55;;;17.70;;
27746;SDS011;15138;51.012;4.692;2024-03-08T05:55:47;34.80;;;14.90;;
27746;SDS011;15138;51.012;4.692;2024-03-08T05:58:15;28.00;;;14.45;;
27746;SDS011;15138;51.012;4.692;2024-03-08T06:00:44;33.22;;;17.08;;
27746;SDS011;15138;51.012;4.692;2024-03-08T06:03:15;33.35;;;15.82;;
27746;SDS011;15138;51.012;4.692;2024-03-08T06:05:46;31.55;;;17.52;;
27746;SDS011;15138;51.012;4.692;2024-03-08T06:08:17;29.23;;;15.32;;
27746;SDS011;15138;51.012;4.692;2024-03-08T06:10:45;32.80;;;17.83;;
27746;SDS011;15138;51.012;4.692;2024-03-08T06:13:19;38.60;;;17.58;;
27746;SDS011;15138;51.012;4.692;2024-03-08T06:15:47;37.05;;;18.65;;
27746;SDS011;15138;51.012;4.692;2024-03-08T06:18:16;34.58;;;17.30;;
27746;SDS011;15138;51.012;4.692;2024-03-08T06:20:45;34.85;;;18.08;;
27746;SDS011;15138;51.012;4.692;2024-03-08T06:23:13;28.92;;;15.18;;
27746;SDS011;15138;51.012;4.692;2024-03-08T06:25:45;27.77;;;14.70;;
27746;SDS011;15138;51.012;4.692;2024-03-08T06:28:13;34.85;;;16.88;;
27746;SDS011;15138;51.012;4.692;2024-03-08T06:30:41;32.97;;;17.92;;
27746;SDS011;15138;51.012;4.692;2024-03-08T06:33:10;34.90;;;17.63;;
27746;SDS011;15138;51.012;4.692;2024-03-08T06:35:38;38.53;;;18.10;;
27746;SDS011;15138;51.012;4.692;2024-03-08T06:38:06;39.45;;;17.88;;
27746;SDS011;15138;51.012;4.692;2024-03-08T06:40:35;32.72;;;17.42;;
27746;SDS011;15138;51.012;4.692;2024-03-08T06:43:05;31.60;;;16.83;;
27746;SDS011;15138;51.012;4.692;2024-03-08T06:45:34;34.53;;;17.38;;
27746;SDS011;15138;51.012;4.692;2024-03-08T06:48:03;33.65;;;18.30;;
27746;SDS011;15138;51.012;4.692;2024-03-08T06:50:36;30.40;;;16.75;;
27746;SDS011;15138;51.012;4.692;2024-03-08T06:53:04;31.20;;;16.77;;
27746;SDS011;15138;51.012;4.692;2024-03-08T06:55:33;31.27;;;16.20;;
27746;SDS011;15138;51.012;4.692;2024-03-08T06:58:01;31.85;;;15.52;;
27746;SDS011;15138;51.012;4.692;2024-03-08T07:00:31;38.25;;;17.65;;
27746;SDS011;15138;51.012;4.692;2024-03-08T07:03:00;33.78;;;17.80;;
27746;SDS011;15138;51.012;4.692;2024-03-08T07:05:28;35.90;;;16.00;;
27746;SDS011;15138;51.012;4.692;2024-03-08T07:07:59;45.25;;;20.30;;
27746;SDS011;15138;51.012;4.692;2024-03-08T07:10:27;39.33;;;18.40;;
27746;SDS011;15138;51.012;4.692;2024-03-08T07:12:55;39.85;;;17.80;;
27746;SDS011;15138;51.012;4.692;2024-03-08T07:15:23;38.90;;;17.98;;
27746;SDS011;15138;51.012;4.692;2024-03-08T07:17:53;33.00;;;16.27;;
27746;SDS011;15138;51.012;4.692;2024-03-08T07:20:22;21.77;;;9.18;;
27746;SDS011;15138;51.012;4.692;2024-03-08T07:22:50;42.15;;;18.33;;
27746;SDS011;15138;51.012;4.692;2024-03-08T07:25:19;38.75;;;15.43;;
27746;SDS011;15138;51.012;4.692;2024-03-08T07:27:49;34.45;;;16.65;;
27746;SDS011;15138;51.012;4.692;2024-03-08T07:30:19;29.90;;;14.80;;
27746;SDS011;15138;51.012;4.692;2024-03-08T07:33:06;35.70;;;17.55;;
27746;SDS011;15138;51.012;4.692;2024-03-08T07:35:38;29.85;;;15.43;;
27746;SDS011;15138;51.012;4.692;2024-03-08T07:38:07;32.22;;;16.60;;
27746;SDS011;15138;51.012;4.692;2024-03-08T07:40:36;35.92;;;18.10;;
27746;SDS011;15138;51.012;4.692;2024-03-08T07:43:07;37.67;;;16.52;;
27746;SDS011;15138;51.012;4.692;2024-03-08T07:45:35;41.28;;;18.35;;
27746;SDS011;15138;51.012;4.692;2024-03-08T07:48:04;38.03;;;19.25;;
27746;SDS011;15138;51.012;4.692;2024-03-08T07:50:37;36.22;;;16.95;;
27746;SDS011;15138;51.012;4.692;2024-03-08T07:53:06;36.88;;;18.13;;
27746;SDS011;15138;51.012;4.692;2024-03-08T07:55:35;39.00;;;19.50;;
27746;SDS011;15138;51.012;4.692;2024-03-08T07:58:04;38.58;;;17.95;;
27746;SDS011;15138;51.012;4.692;2024-03-08T08:00:32;31.08;;;13.80;;
27746;SDS011;15138;51.012;4.692;2024-03-08T08:03:02;41.85;;;18.67;;
27746;SDS011;15138;51.012;4.692;2024-03-08T08:05:31;35.75;;;17.17;;
27746;SDS011;15138;51.012;4.692;2024-03-08T08:08:03;38.20;;;17.38;;
27746;SDS011;15138;51.012;4.692;2024-03-08T08:10:33;32.45;;;17.60;;
27746;SDS011;15138;51.012;4.692;2024-03-08T08:13:01;22.42;;;11.80;;
27746;SDS011;15138;51.012;4.692;2024-03-08T08:15:31;33.88;;;15.50;;
27746;SDS011;15138;51.012;4.692;2024-03-08T08:18:00;41.08;;;17.77;;
27746;SDS011;15138;51.012;4.692;2024-03-08T08:20:33;33.70;;;17.27;;
27746;SDS011;15138;51.012;4.692;2024-03-08T08:23:03;34.83;;;15.93;;
27746;SDS011;15138;51.012;4.692;2024-03-08T08:25:31;34.28;;;17.35;;
27746;SDS011;15138;51.012;4.692;2024-03-08T08:28:01;33.85;;;17.73;;
27746;SDS011;15138;51.012;4.692;2024-03-08T08:30:31;30.98;;;15.48;;
27746;SDS011;15138;51.012;4.692;2024-03-08T08:33:00;19.05;;;7.32;;
27746;SDS011;15138;51.012;4.692;2024-03-08T08:35:29;27.48;;;13.23;;
27746;SDS011;15138;51.012;4.692;2024-03-08T08:37:57;24.42;;;11.32;;
27746;SDS011;15138;51.012;4.692;2024-03-08T08:40:27;29.05;;;15.23;;
27746;SDS011;15138;51.012;4.692;2024-03-08T08:42:57;22.10;;;11.27;;
27746;SDS011;15138;51.012;4.692;2024-03-08T08:45:26;28.05;;;13.95;;
27746;SDS011;15138;51.012;4.692;2024-03-08T08:47:54;34.60;;;16.27;;
27746;SDS011;15138;51.012;4.692;2024-03-08T08:50:23;26.00;;;13.23;;
27746;SDS011;15138;51.012;4.692;2024-03-08T08:52:52;29.85;;;14.55;;
27746;SDS011;15138;51.012;4.692;2024-03-08T08:55:20;23.67;;;11.93;;
27746;SDS011;15138;51.012;4.692;2024-03-08T08:57:53;31.08;;;15.23;;
27746;SDS011;15138;51.012;4.692;2024-03-08T09:00:23;25.35;;;13.15;;
27746;SDS011;15138;51.012;4.692;2024-03-08T09:02:54;26.50;;;13.30;;
27746;SDS011;15138;51.012;4.692;2024-03-08T09:05:25;32.13;;;14.95;;
27746;SDS011;15138;51.012;4.692;2024-03-08T09:07:54;28.55;;;13.60;;
27746;SDS011;15138;51.012;4.692;2024-03-08T09:10:23;29.58;;;15.13;;
27746;SDS011;15138;51.012;4.692;2024-03-08T09:12:56;22.08;;;12.20;;
27746;SDS011;15138;51.012;4.692;2024-03-08T09:15:26;31.40;;;14.32;;
27746;SDS011;15138;51.012;4.692;2024-03-08T09:17:55;26.23;;;11.25;;
27746;SDS011;15138;51.012;4.692;2024-03-08T09:20:26;24.17;;;12.18;;
27746;SDS011;15138;51.012;4.692;2024-03-08T09:22:54;22.63;;;12.18;;
27746;SDS011;15138;51.012;4.692;2024-03-08T09:25:23;29.65;;;13.90;;
27746;SDS011;15138;51.012;4.692;2024-03-08T09:27:51;26.27;;;14.10;;
27746;SDS011;15138;51.012;4.692;2024-03-08T09:30:22;30.00;;;12.77;;
27746;SDS011;15138;51.012;4.692;2024-03-08T09:32:50;20.27;;;11.43;;
27746;SDS011;15138;51.012;4.692;2024-03-08T09:35:20;21.80;;;10.75;;
27746;SDS011;15138;51.012;4.692;2024-03-08T09:37:48;26.95;;;12.38;;
27746;SDS011;15138;51.012;4.692;2024-03-08T09:40:18;24.55;;;12.38;;
27746;SDS011;15138;51.012;4.692;2024-03-08T09:42:47;26.08;;;13.23;;
27746;SDS011;15138;51.012;4.692;2024-03-08T09:45:16;32.92;;;14.35;;
27746;SDS011;15138;51.012;4.692;2024-03-08T09:47:46;26.73;;;13.15;;
27746;SDS011;15138;51.012;4.692;2024-03-08T09:50:15;25.15;;;12.25;;
27746;SDS011;15138;51.012;4.692;2024-03-08T09:52:46;23.50;;;12.70;;
27746;SDS011;15138;51.012;4.692;2024-03-08T09:55:17;26.60;;;12.40;;
27746;SDS011;15138;51.012;4.692;2024-03-08T09:57:49;27.05;;;12.93;;
27746;SDS011;15138;51.012;4.692;2024-03-08T10:00:43;26.15;;;12.75;;
27746;SDS011;15138;51.012;4.692;2024-03-08T10:03:12;20.70;;;10.90;;
27746;SDS011;15138;51.012;4.692;2024-03-08T10:05:42;23.33;;;11.80;;
27746;SDS011;15138;51.012;4.692;2024-03-08T10:08:11;24.83;;;12.35;;
27746;SDS011;15138;51.012;4.692;2024-03-08T10:10:39;21.98;;;9.23;;
27746;SDS011;15138;51.012;4.692;2024-03-08T10:13:09;21.25;;;10.75;;
27746;SDS011;15138;51.012;4.692;2024-03-08T10:15:39;16.95;;;9.55;;
27746;SDS011;15138;51.012;4.692;2024-03-08T10:18:07;19.88;;;9.68;;
27746;SDS011;15138;51.012;4.692;2024-03-08T10:20:38;20.08;;;10.27;;
27746;SDS011;15138;51.012;4.692;2024-03-08T10:23:06;24.17;;;9.90;;
27746;SDS011;15138;51.012;4.692;2024-03-08T10:25:37;26.90;;;10.57;;
27746;SDS011;15138;51.012;4.692;2024-03-08T10:28:06;22.17;;;11.70;;
27746;SDS011;15138;51.012;4.692;2024-03-08T10:30:34;23.50;;;11.02;;
27746;SDS011;15138;51.012;4.692;2024-03-08T10:33:03;19.90;;;11.35;;
27746;SDS011;15138;51.012;4.692;2024-03-08T10:35:32;18.70;;;10.60;;
27746;SDS011;15138;51.012;4.692;2024-03-08T10:38:02;20.88;;;11.48;;
27746;SDS011;15138;51.012;4.692;2024-03-08T10:40:34;17.88;;;8.57;;
27746;SDS011;15138;51.012;4.692;2024-03-08T10:43:04;22.15;;;11.65;;
27746;SDS011;15138;51.012;4.692;2024-03-08T10:45:34;22.17;;;11.48;;
27746;SDS011;15138;51.012;4.692;2024-03-08T10:48:04;22.73;;;11.25;;
27746;SDS011;15138;51.012;4.692;2024-03-08T10:50:35;17.38;;;9.05;;
27746;SDS011;15138;51.012;4.692;2024-03-08T10:53:05;23.75;;;9.85;;
27746;SDS011;15138;51.012;4.692;2024-03-08T10:55:35;21.63;;;11.05;;
27746;SDS011;15138;51.012;4.692;2024-03-08T10:58:05;19.15;;;10.25;;
27746;SDS011;15138;51.012;4.692;2024-03-08T11:00:34;19.70;;;10.80;;
27746;SDS011;15138;51.012;4.692;2024-03-08T11:03:03;20.27;;;11.75;;
27746;SDS011;15138;51.012;4.692;2024-03-08T11:05:32;20.08;;;11.10;;
27746;SDS011;15138;51.012;4.692;2024-03-08T11:08:17;18.75;;;9.95;;
27746;SDS011;15138;51.012;4.692;2024-03-08T11:10:49;21.77;;;12.23;;
27746;SDS011;15138;51.012;4.692;2024-03-08T11:13:35;20.25;;;11.23;;
27746;SDS011;15138;51.012;4.692;2024-03-08T11:16:07;20.38;;;10.65;;
27746;SDS011;15138;51.012;4.692;2024-03-08T11:18:36;22.35;;;12.30;;
27746;SDS011;15138;51.012;4.692;2024-03-08T11:21:07;20.15;;;10.88;;
27746;SDS011;15138;51.012;4.692;2024-03-08T11:23:40;21.20;;;10.15;;
27746;SDS011;15138;51.012;4.692;2024-03-08T11:26:17;16.02;;;9.73;;
27746;SDS011;15138;51.012;4.692;2024-03-08T11:28:46;19.85;;;11.40;;
27746;SDS011;15138;51.012;4.692;2024-03-08T11:31:22;20.35;;;10.10;;
27746;SDS011;15138;51.012;4.692;2024-03-08T11:33:52;23.00;;;13.75;;
27746;SDS011;15138;51.012;4.692;2024-03-08T11:36:21;21.00;;;11.70;;
27746;SDS011;15138;51.012;4.692;2024-03-08T11:38:52;20.15;;;11.15;;
27746;SDS011;15138;51.012;4.692;2024-03-08T11:41:22;17.40;;;10.02;;
27746;SDS011;15138;51.012;4.692;2024-03-08T11:44:01;21.15;;;10.95;;
27746;SDS011;15138;51.012;4.692;2024-03-08T11:46:31;23.00;;;12.57;;
27746;SDS011;15138;51.012;4.692;2024-03-08T11:49:00;19.92;;;9.77;;
27746;SDS011;15138;51.012;4.692;2024-03-08T11:51:29;18.27;;;10.75;;
27746;SDS011;15138;51.012;4.692;2024-03-08T11:54:00;19.92;;;9.93;;
27746;SDS011;15138;51.012;4.692;2024-03-08T11:56:29;16.42;;;9.25;;
27746;SDS011;15138;51.012;4.692;2024-03-08T11:58:58;21.05;;;11.82;;
27746;SDS011;15138;51.012;4.692;2024-03-08T12:01:28;18.08;;;9.73;;
27746;SDS011;15138;51.012;4.692;2024-03-08T12:03:57;20.20;;;9.65;;
27746;SDS011;15138;51.012;4.692;2024-03-08T12:06:26;18.50;;;10.60;;
27746;SDS011;15138;51.012;4.692;2024-03-08T12:08:55;17.88;;;10.70;;
27746;SDS011;15138;51.012;4.692;2024-03-08T12:11:25;17.63;;;9.95;;
27746;SDS011;15138;51.012;4.692;2024-03-08T12:13:57;22.90;;;12.85;;
27746;SDS011;15138;51.012;4.692;2024-03-08T12:16:27;19.27;;;10.30;;
27746;SDS011;15138;51.012;4.692;2024-03-08T12:18:56;19.85;;;10.57;;
27746;SDS011;15138;51.012;4.692;2024-03-08T12:21:25;15.85;;;9.52;;
27746;SDS011;15138;51.012;4.692;2024-03-08T12:24:02;15.98;;;9.20;;
27746;SDS011;15138;51.012;4.692;2024-03-08T12:26:36;18.77;;;10.80;;
27746;SDS011;15138;51.012;4.692;2024-03-08T12:29:16;21.73;;;11.63;;
27746;SDS011;15138;51.012;4.692;2024-03-08T12:31:47;19.05;;;10.75;;
27746;SDS011;15138;51.012;4.692;2024-03-08T12:34:18;18.98;;;10.38;;
27746;SDS011;15138;51.012;4.692;2024-03-08T12:36:46;17.58;;;8.68;;
27746;SDS011;15138;51.012;4.692;2024-03-08T12:39:16;16.92;;;9.32;;
27746;SDS011;15138;51.012;4.692;2024-03-08T12:41:50;19.83;;;12.07;;
27746;SDS011;15138;51.012;4.692;2024-03-08T12:44:18;18.55;;;9.40;;
27746;SDS011;15138;51.012;4.692;2024-03-08T12:46:48;16.67;;;9.18;;
27746;SDS011;15138;51.012;4.692;2024-03-08T12:49:19;17.80;;;9.75;;
27746;SDS011;15138;51.012;4.692;2024-03-08T12:51:49;19.00;;;10.88;;
27746;SDS011;15138;51.012;4.692;2024-03-08T12:54:19;18.48;;;9.45;;
27746;SDS011;15138;51.012;4.692;2024-03-08T12:56:51;19.00;;;10.52;;
27746;SDS011;15138;51.012;4.692;2024-03-08T12:59:21;21.10;;;10.75;;
27746;SDS011;15138;51.012;4.692;2024-03-08T13:01:50;18.20;;;9.93;;
27746;SDS011;15138;51.012;4.692;2024-03-08T13:04:20;16.52;;;8.10;;
27746;SDS011;15138;51.012;4.692;2024-03-08T13:06:49;16.67;;;10.10;;
27746;SDS011;15138;51.012;4.692;2024-03-08T13:09:21;23.25;;;13.13;;
27746;SDS011;15138;51.012;4.692;2024-03-08T13:11:51;18.63;;;9.65;;
27746;SDS011;15138;51.012;4.692;2024-03-08T13:14:29;22.67;;;10.07;;
27746;SDS011;15138;51.012;4.692;2024-03-08T13:17:01;19.52;;;9.50;;
27746;SDS011;15138;51.012;4.692;2024-03-08T13:19:30;20.50;;;10.55;;
27746;SDS011;15138;51.012;4.692;2024-03-08T13:22:00;18.05;;;9.70;;
27746;SDS011;15138;51.012;4.692;2024-03-08T13:24:30;19.25;;;9.25;;
27746;SDS011;15138;51.012;4.692;2024-03-08T13:27:00;16.15;;;9.07;;
27746;SDS011;15138;51.012;4.692;2024-03-08T13:29:29;15.75;;;8.20;;
27746;SDS011;15138;51.012;4.692;2024-03-08T13:32:00;17.98;;;10.50;;
27746;SDS011;15138;51.012;4.692;2024-03-08T13:34:29;15.63;;;9.50;;
27746;SDS011;15138;51.012;4.692;2024-03-08T13:37:01;17.88;;;9.85;;
27746;SDS011;15138;51.012;4.692;2024-03-08T13:39:32;14.82;;;8.75;;
27746;SDS011;15138;51.012;4.692;2024-03-08T13:42:07;17.88;;;9.68;;
27746;SDS011;15138;51.012;4.692;2024-03-08T13:44:37;18.00;;;9.30;;
27746;SDS011;15138;51.012;4.692;2024-03-08T13:47:06;16.75;;;9.90;;
27746;SDS011;15138;51.012;4.692;2024-03-08T13:49:35;20.20;;;10.35;;
27746;SDS011;15138;51.012;4.692;2024-03-08T13:52:04;22.48;;;11.02;;
27746;SDS011;15138;51.012;4.692;2024-03-08T13:54:34;17.25;;;8.70;;
27746;SDS011;15138;51.012;4.692;2024-03-08T13:57:05;15.32;;;9.43;;
27746;SDS011;15138;51.012;4.692;2024-03-08T13:59:33;18.90;;;9.52;;
27746;SDS011;15138;51.012;4.692;2024-03-08T14:02:05;16.35;;;9.20;;
27746;SDS011;15138;51.012;4.692;2024-03-08T14:04:36;18.65;;;9.07;;
27746;SDS011;15138;51.012;4.692;2024-03-08T14:07:05;17.20;;;9.52;;
27746;SDS011;15138;51.012;4.692;2024-03-08T14:09:34;16.80;;;9.15;;
27746;SDS011;15138;51.012;4.692;2024-03-08T14:12:09;16.60;;;9.50;;
27746;SDS011;15138;51.012;4.692;2024-03-08T14:14:37;17.15;;;9.63;;
27746;SDS011;15138;51.012;4.692;2024-03-08T14:17:07;16.48;;;9.52;;
27746;SDS011;15138;51.012;4.692;2024-03-08T14:19:36;16.90;;;10.20;;
27746;SDS011;15138;51.012;4.692;2024-03-08T14:22:05;16.05;;;8.63;;
27746;SDS011;15138;51.012;4.692;2024-03-08T14:24:37;18.98;;;8.07;;
27746;SDS011;15138;51.012;4.692;2024-03-08T14:27:06;15.55;;;9.38;;
27746;SDS011;15138;51.012;4.692;2024-03-08T14:29:35;16.95;;;9.48;;
27746;SDS011;15138;51.012;4.692;2024-03-08T14:32:05;21.38;;;11.50;;
27746;SDS011;15138;51.012;4.692;2024-03-08T14:34:36;15.10;;;9.90;;
27746;SDS011;15138;51.012;4.692;2024-03-08T14:37:04;19.33;;;10.15;;